sensor_id;sensor_type;location;lat;lon;timestamp;pressure;altitude;pressure_sealevel;temperature;humidity
57412;BME280;43247;52.828;-8.980;2023-05-16T00:00:38;102865.72;;;11.96;73.45
57412;BME280;43247;52.828;-8.980;2023-05-16T00:01:38;102865.07;;;11.95;73.61
57412;BME280;43247;52.828;-8.980;2023-05-16T00:02:39;102866.62;;;11.94;73.64
57412;BME280;43247;52.828;-8.980;2023-05-16T00:03:39;102866.24;;;11.93;73.89
57412;BME280;43247;52.828;-8.980;2023-05-16T00:04:39;102868.17;;;11.92;73.57
57412;BME280;43247;52.828;-8.980;2023-05-16T00:05:39;102862.97;;;11.91;73.61
57412;BME280;43247;52.828;-8.980;2023-05-16T00:06:39;102862.30;;;11.90;73.44
57412;BME280;43247;52.828;-8.980;2023-05-16T00:07:41;102859.85;;;11.89;73.69
57412;BME280;43247;52.828;-8.980;2023-05-16T00:08:39;102859.26;;;11.88;73.85
57412;BME280;43247;52.828;-8.980;2023-05-16T00:09:40;102856.93;;;11.86;73.89
57412;BME280;43247;52.828;-8.980;2023-05-16T00:10:40;102858.69;;;11.84;73.75
57412;BME280;43247;52.828;-8.980;2023-05-16T00:11:40;102859.37;;;11.84;73.81
57412;BME280;43247;52.828;-8.980;2023-05-16T00:12:40;102859.69;;;11.82;73.61
57412;BME280;43247;52.828;-8.980;2023-05-16T00:13:40;102862.56;;;11.82;73.74
57412;BME280;43247;52.828;-8.980;2023-05-16T00:14:41;102863.00;;;11.81;73.65
57412;BME280;43247;52.828;-8.980;2023-05-16T00:15:41;102863.88;;;11.80;73.90
57412;BME280;43247;52.828;-8.980;2023-05-16T00:16:41;102864.26;;;11.79;73.88
57412;BME280;43247;52.828;-8.980;2023-05-16T00:17:42;102867.48;;;11.77;73.60
57412;BME280;43247;52.828;-8.980;2023-05-16T00:18:42;102867.73;;;11.76;73.56
57412;BME280;43247;52.828;-8.980;2023-05-16T00:19:42;102866.24;;;11.75;73.54
57412;BME280;43247;52.828;-8.980;2023-05-16T00:20:42;102868.05;;;11.74;73.54
57412;BME280;43247;52.828;-8.980;2023-05-16T00:21:42;102866.93;;;11.73;73.55
57412;BME280;43247;52.828;-8.980;2023-05-16T00:22:42;102867.95;;;11.72;73.76
57412;BME280;43247;52.828;-8.980;2023-05-16T00:23:43;102866.01;;;11.70;73.79
57412;BME280;43247;52.828;-8.980;2023-05-16T00:24:43;102863.57;;;11.69;73.72
57412;BME280;43247;52.828;-8.980;2023-05-16T00:25:43;102866.84;;;11.68;73.69
57412;BME280;43247;52.828;-8.980;2023-05-16T00:26:43;102864.77;;;11.67;73.80
57412;BME280;43247;52.828;-8.980;2023-05-16T00:27:43;102867.33;;;11.65;73.71
57412;BME280;43247;52.828;-8.980;2023-05-16T00:28:43;102866.74;;;11.64;73.81
57412;BME280;43247;52.828;-8.980;2023-05-16T00:29:44;102865.73;;;11.63;73.68
57412;BME280;43247;52.828;-8.980;2023-05-16T00:30:44;102865.97;;;11.61;73.89
57412;BME280;43247;52.828;-8.980;2023-05-16T00:31:44;102863.73;;;11.60;73.73
57412;BME280;43247;52.828;-8.980;2023-05-16T00:32:44;102863.23;;;11.58;73.71
57412;BME280;43247;52.828;-8.980;2023-05-16T00:33:44;102864.30;;;11.58;73.65
57412;BME280;43247;52.828;-8.980;2023-05-16T00:34:44;102862.20;;;11.57;73.63
57412;BME280;43247;52.828;-8.980;2023-05-16T00:35:45;102860.17;;;11.55;73.72
57412;BME280;43247;52.828;-8.980;2023-05-16T00:36:45;102857.71;;;11.53;73.69
57412;BME280;43247;52.828;-8.980;2023-05-16T00:37:45;102857.38;;;11.52;73.66
57412;BME280;43247;52.828;-8.980;2023-05-16T00:38:45;102856.43;;;11.51;73.54
57412;BME280;43247;52.828;-8.980;2023-05-16T00:39:45;102855.49;;;11.50;73.51
57412;BME280;43247;52.828;-8.980;2023-05-16T00:40:45;102853.94;;;11.48;73.58
57412;BME280;43247;52.828;-8.980;2023-05-16T00:41:46;102856.31;;;11.47;73.69
57412;BME280;43247;52.828;-8.980;2023-05-16T00:42:46;102857.97;;;11.47;73.58
57412;BME280;43247;52.828;-8.980;2023-05-16T00:43:46;102856.21;;;11.46;73.60
57412;BME280;43247;52.828;-8.980;2023-05-16T00:44:46;102858.63;;;11.45;73.49
57412;BME280;43247;52.828;-8.980;2023-05-16T00:45:46;102859.92;;;11.43;73.61
57412;BME280;43247;52.828;-8.980;2023-05-16T00:46:46;102859.02;;;11.42;73.60
57412;BME280;43247;52.828;-8.980;2023-05-16T00:47:47;102858.43;;;11.40;73.56
57412;BME280;43247;52.828;-8.980;2023-05-16T00:48:47;102855.83;;;11.38;73.48
57412;BME280;43247;52.828;-8.980;2023-05-16T00:49:47;102854.18;;;11.37;73.54
57412;BME280;43247;52.828;-8.980;2023-05-16T00:50:47;102854.23;;;11.36;73.51
57412;BME280;43247;52.828;-8.980;2023-05-16T00:51:48;102850.97;;;11.35;73.71
57412;BME280;43247;52.828;-8.980;2023-05-16T00:52:48;102851.13;;;11.34;73.76
57412;BME280;43247;52.828;-8.980;2023-05-16T00:53:48;102851.57;;;11.33;73.73
57412;BME280;43247;52.828;-8.980;2023-05-16T00:54:49;102849.68;;;11.31;73.69
57412;BME280;43247;52.828;-8.980;2023-05-16T00:55:48;102852.83;;;11.30;73.79
57412;BME280;43247;52.828;-8.980;2023-05-16T00:56:48;102852.28;;;11.29;73.70
57412;BME280;43247;52.828;-8.980;2023-05-16T00:57:49;102852.78;;;11.28;73.58
57412;BME280;43247;52.828;-8.980;2023-05-16T00:58:49;102854.00;;;11.27;73.67
57412;BME280;43247;52.828;-8.980;2023-05-16T00:59:49;102854.18;;;11.25;73.63
57412;BME280;43247;52.828;-8.980;2023-05-16T01:00:49;102856.99;;;11.25;73.58
57412;BME280;43247;52.828;-8.980;2023-05-16T01:01:50;102858.61;;;11.23;73.54
57412;BME280;43247;52.828;-8.980;2023-05-16T01:02:50;102860.70;;;11.21;73.65
57412;BME280;43247;52.828;-8.980;2023-05-16T01:03:50;102859.95;;;11.19;73.51
57412;BME280;43247;52.828;-8.980;2023-05-16T01:04:50;102861.47;;;11.18;73.39
57412;BME280;43247;52.828;-8.980;2023-05-16T01:05:50;102861.64;;;11.18;72.80
57412;BME280;43247;52.828;-8.980;2023-05-16T01:06:50;102861.25;;;11.21;72.43
57412;BME280;43247;52.828;-8.980;2023-05-16T01:07:50;102859.60;;;11.23;72.24
57412;BME280;43247;52.828;-8.980;2023-05-16T01:08:50;102859.58;;;11.24;71.96
57412;BME280;43247;52.828;-8.980;2023-05-16T01:09:51;102859.92;;;11.26;71.98
57412;BME280;43247;52.828;-8.980;2023-05-16T01:10:58;102858.46;;;11.25;72.02
57412;BME280;43247;52.828;-8.980;2023-05-16T01:11:57;102858.40;;;11.26;71.77
57412;BME280;43247;52.828;-8.980;2023-05-16T01:12:59;102859.25;;;11.26;71.73
57412;BME280;43247;52.828;-8.980;2023-05-16T01:13:59;102858.20;;;11.25;71.89
57412;BME280;43247;52.828;-8.980;2023-05-16T01:14:58;102858.20;;;11.24;71.89
57412;BME280;43247;52.828;-8.980;2023-05-16T01:15:59;102859.17;;;11.24;71.78
57412;BME280;43247;52.828;-8.980;2023-05-16T01:17:00;102858.05;;;11.24;71.82
57412;BME280;43247;52.828;-8.980;2023-05-16T01:17:58;102858.07;;;11.23;71.76
57412;BME280;43247;52.828;-8.980;2023-05-16T01:19:00;102859.07;;;11.22;71.89
57412;BME280;43247;52.828;-8.980;2023-05-16T01:20:02;102858.40;;;11.22;71.84
57412;BME280;43247;52.828;-8.980;2023-05-16T01:20:55;102859.38;;;11.20;72.11
57412;BME280;43247;52.828;-8.980;2023-05-16T01:22:01;102858.03;;;11.20;72.07
57412;BME280;43247;52.828;-8.980;2023-05-16T01:23:06;102854.87;;;11.18;72.11
57412;BME280;43247;52.828;-8.980;2023-05-16T01:23:59;102856.08;;;11.18;72.01
57412;BME280;43247;52.828;-8.980;2023-05-16T01:25:03;102853.08;;;11.18;72.00
57412;BME280;43247;52.828;-8.980;2023-05-16T01:25:57;102852.17;;;11.17;72.09
57412;BME280;43247;52.828;-8.980;2023-05-16T01:26:55;102850.36;;;11.16;71.95
57412;BME280;43247;52.828;-8.980;2023-05-16T01:27:54;102848.91;;;11.16;71.81
57412;BME280;43247;52.828;-8.980;2023-05-16T01:28:54;102846.77;;;11.15;71.99
57412;BME280;43247;52.828;-8.980;2023-05-16T01:29:55;102843.71;;;11.14;72.09
57412;BME280;43247;52.828;-8.980;2023-05-16T01:30:55;102843.23;;;11.13;72.01
57412;BME280;43247;52.828;-8.980;2023-05-16T01:31:55;102843.53;;;11.13;71.96
57412;BME280;43247;52.828;-8.980;2023-05-16T01:32:55;102842.68;;;11.12;72.09
57412;BME280;43247;52.828;-8.980;2023-05-16T01:33:55;102841.99;;;11.11;72.07
57412;BME280;43247;52.828;-8.980;2023-05-16T01:34:55;102840.39;;;11.11;72.08
57412;BME280;43247;52.828;-8.980;2023-05-16T01:36:00;102840.17;;;11.10;72.11
57412;BME280;43247;52.828;-8.980;2023-05-16T01:37:02;102839.37;;;11.08;72.04
57412;BME280;43247;52.828;-8.980;2023-05-16T01:38:00;102838.00;;;11.08;72.01
57412;BME280;43247;52.828;-8.980;2023-05-16T01:39:01;102838.10;;;11.07;72.27
57412;BME280;43247;52.828;-8.980;2023-05-16T01:40:01;102838.78;;;11.06;72.00
57412;BME280;43247;52.828;-8.980;2023-05-16T01:41:01;102837.33;;;11.05;72.08
57412;BME280;43247;52.828;-8.980;2023-05-16T01:42:02;102838.17;;;11.02;71.75
57412;BME280;43247;52.828;-8.980;2023-05-16T01:42:58;102837.43;;;10.99;71.44
57412;BME280;43247;52.828;-8.980;2023-05-16T01:44:00;102835.82;;;10.98;70.98
57412;BME280;43247;52.828;-8.980;2023-05-16T01:45:01;102834.37;;;10.97;70.73
57412;BME280;43247;52.828;-8.980;2023-05-16T01:46:02;102837.09;;;10.99;70.75
57412;BME280;43247;52.828;-8.980;2023-05-16T01:47:01;102837.78;;;11.02;70.46
57412;BME280;43247;52.828;-8.980;2023-05-16T01:48:02;102837.22;;;11.03;70.29
57412;BME280;43247;52.828;-8.980;2023-05-16T01:49:03;102838.53;;;11.00;70.60
57412;BME280;43247;52.828;-8.980;2023-05-16T01:50:04;102838.99;;;11.00;70.64
57412;BME280;43247;52.828;-8.980;2023-05-16T01:51:00;102841.78;;;11.01;70.52
57412;BME280;43247;52.828;-8.980;2023-05-16T01:52:04;102843.19;;;11.01;70.70
57412;BME280;43247;52.828;-8.980;2023-05-16T01:53:02;102843.27;;;11.00;70.40
57412;BME280;43247;52.828;-8.980;2023-05-16T01:54:05;102847.46;;;10.98;70.63
57412;BME280;43247;52.828;-8.980;2023-05-16T01:54:59;102849.04;;;11.00;70.72
57412;BME280;43247;52.828;-8.980;2023-05-16T01:56:00;102852.69;;;11.01;70.70
57412;BME280;43247;52.828;-8.980;2023-05-16T01:57:00;102854.00;;;11.00;71.03
57412;BME280;43247;52.828;-8.980;2023-05-16T01:58:02;102856.27;;;11.00;70.85
57412;BME280;43247;52.828;-8.980;2023-05-16T01:59:01;102853.37;;;11.01;71.09
57412;BME280;43247;52.828;-8.980;2023-05-16T02:00:00;102852.89;;;11.01;71.01
57412;BME280;43247;52.828;-8.980;2023-05-16T02:01:02;102852.13;;;11.00;71.16
57412;BME280;43247;52.828;-8.980;2023-05-16T02:02:01;102854.26;;;10.99;70.91
57412;BME280;43247;52.828;-8.980;2023-05-16T02:03:01;102853.23;;;10.98;71.19
57412;BME280;43247;52.828;-8.980;2023-05-16T02:04:01;102854.91;;;10.96;71.15
57412;BME280;43247;52.828;-8.980;2023-05-16T02:05:01;102855.41;;;10.96;71.15
57412;BME280;43247;52.828;-8.980;2023-05-16T02:06:01;102856.76;;;10.95;71.15
57412;BME280;43247;52.828;-8.980;2023-05-16T02:07:01;102854.50;;;10.96;70.74
57412;BME280;43247;52.828;-8.980;2023-05-16T02:08:02;102854.16;;;10.83;70.16
57412;BME280;43247;52.828;-8.980;2023-05-16T02:09:02;102851.69;;;10.69;70.13
57412;BME280;43247;52.828;-8.980;2023-05-16T02:10:04;102850.77;;;10.64;70.04
57412;BME280;43247;52.828;-8.980;2023-05-16T02:11:04;102848.46;;;10.52;70.30
57412;BME280;43247;52.828;-8.980;2023-05-16T02:12:04;102847.03;;;10.49;70.22
57412;BME280;43247;52.828;-8.980;2023-05-16T02:13:04;102847.08;;;10.50;70.18
57412;BME280;43247;52.828;-8.980;2023-05-16T02:14:04;102846.62;;;10.54;69.86
57412;BME280;43247;52.828;-8.980;2023-05-16T02:15:05;102848.53;;;10.49;70.00
57412;BME280;43247;52.828;-8.980;2023-05-16T02:16:05;102849.63;;;10.57;70.07
57412;BME280;43247;52.828;-8.980;2023-05-16T02:17:05;102851.65;;;10.53;70.22
57412;BME280;43247;52.828;-8.980;2023-05-16T02:18:05;102852.53;;;10.54;70.22
57412;BME280;43247;52.828;-8.980;2023-05-16T02:19:05;102853.89;;;10.54;70.14
57412;BME280;43247;52.828;-8.980;2023-05-16T02:20:06;102857.34;;;10.63;70.14
57412;BME280;43247;52.828;-8.980;2023-05-16T02:21:05;102854.62;;;10.62;70.04
57412;BME280;43247;52.828;-8.980;2023-05-16T02:22:06;102855.07;;;10.70;69.91
57412;BME280;43247;52.828;-8.980;2023-05-16T02:23:06;102854.39;;;10.67;70.04
57412;BME280;43247;52.828;-8.980;2023-05-16T02:24:06;102854.75;;;10.71;70.05
57412;BME280;43247;52.828;-8.980;2023-05-16T02:25:08;102854.67;;;10.67;70.20
57412;BME280;43247;52.828;-8.980;2023-05-16T02:26:07;102856.85;;;10.67;70.27
57412;BME280;43247;52.828;-8.980;2023-05-16T02:27:07;102858.61;;;10.72;70.23
57412;BME280;43247;52.828;-8.980;2023-05-16T02:28:07;102855.66;;;10.79;70.13
57412;BME280;43247;52.828;-8.980;2023-05-16T02:29:08;102859.90;;;10.72;70.28
57412;BME280;43247;52.828;-8.980;2023-05-16T02:30:08;102860.53;;;10.75;70.21
57412;BME280;43247;52.828;-8.980;2023-05-16T02:31:08;102861.19;;;10.81;70.22
57412;BME280;43247;52.828;-8.980;2023-05-16T02:32:08;102860.13;;;10.82;69.90
57412;BME280;43247;52.828;-8.980;2023-05-16T02:33:09;102860.43;;;10.86;69.97
57412;BME280;43247;52.828;-8.980;2023-05-16T02:34:08;102859.07;;;10.89;70.32
57412;BME280;43247;52.828;-8.980;2023-05-16T02:35:08;102857.64;;;10.87;70.43
57412;BME280;43247;52.828;-8.980;2023-05-16T02:36:09;102854.91;;;10.86;70.66
57412;BME280;43247;52.828;-8.980;2023-05-16T02:37:09;102851.25;;;10.82;70.75
57412;BME280;43247;52.828;-8.980;2023-05-16T02:38:09;102852.42;;;10.82;70.67
57412;BME280;43247;52.828;-8.980;2023-05-16T02:39:09;102851.28;;;10.80;70.63
57412;BME280;43247;52.828;-8.980;2023-05-16T02:40:10;102849.44;;;10.79;70.73
57412;BME280;43247;52.828;-8.980;2023-05-16T02:41:09;102849.90;;;10.77;70.71
57412;BME280;43247;52.828;-8.980;2023-05-16T02:42:10;102850.44;;;10.75;70.68
57412;BME280;43247;52.828;-8.980;2023-05-16T02:43:10;102849.58;;;10.74;70.65
57412;BME280;43247;52.828;-8.980;2023-05-16T02:44:10;102850.48;;;10.71;70.76
57412;BME280;43247;52.828;-8.980;2023-05-16T02:45:10;102851.35;;;10.70;70.71
57412;BME280;43247;52.828;-8.980;2023-05-16T02:47:10;102856.35;;;10.67;71.04
57412;BME280;43247;52.828;-8.980;2023-05-16T02:48:10;102855.36;;;10.65;71.02
57412;BME280;43247;52.828;-8.980;2023-05-16T02:49:11;102860.32;;;10.63;71.03
57412;BME280;43247;52.828;-8.980;2023-05-16T02:50:11;102861.54;;;10.64;71.04
57412;BME280;43247;52.828;-8.980;2023-05-16T02:51:11;102863.42;;;10.63;71.25
57412;BME280;43247;52.828;-8.980;2023-05-16T02:52:11;102864.95;;;10.62;71.16
57412;BME280;43247;52.828;-8.980;2023-05-16T02:53:11;102866.48;;;10.60;71.13
57412;BME280;43247;52.828;-8.980;2023-05-16T02:54:12;102863.62;;;10.60;71.21
57412;BME280;43247;52.828;-8.980;2023-05-16T02:55:12;102862.85;;;10.59;71.24
57412;BME280;43247;52.828;-8.980;2023-05-16T02:56:12;102859.58;;;10.58;71.26
57412;BME280;43247;52.828;-8.980;2023-05-16T02:57:12;102861.16;;;10.55;71.09
57412;BME280;43247;52.828;-8.980;2023-05-16T02:58:12;102860.66;;;10.57;70.73
57412;BME280;43247;52.828;-8.980;2023-05-16T02:59:12;102858.87;;;10.59;70.27
57412;BME280;43247;52.828;-8.980;2023-05-16T03:00:13;102859.85;;;10.61;70.16
57412;BME280;43247;52.828;-8.980;2023-05-16T03:01:13;102858.02;;;10.60;69.97
57412;BME280;43247;52.828;-8.980;2023-05-16T03:02:13;102858.44;;;10.52;69.86
57412;BME280;43247;52.828;-8.980;2023-05-16T03:03:13;102858.50;;;10.59;69.88
57412;BME280;43247;52.828;-8.980;2023-05-16T03:04:13;102856.36;;;10.52;69.57
57412;BME280;43247;52.828;-8.980;2023-05-16T03:05:13;102856.94;;;10.55;69.81
57412;BME280;43247;52.828;-8.980;2023-05-16T03:06:14;102856.32;;;10.56;69.55
57412;BME280;43247;52.828;-8.980;2023-05-16T03:07:14;102855.74;;;10.54;69.68
57412;BME280;43247;52.828;-8.980;2023-05-16T03:08:14;102854.53;;;10.53;69.53
57412;BME280;43247;52.828;-8.980;2023-05-16T03:09:14;102854.39;;;10.55;69.82
57412;BME280;43247;52.828;-8.980;2023-05-16T03:10:14;102854.98;;;10.57;69.48
57412;BME280;43247;52.828;-8.980;2023-05-16T03:11:16;102852.32;;;10.55;69.68
57412;BME280;43247;52.828;-8.980;2023-05-16T03:12:15;102852.30;;;10.52;69.79
57412;BME280;43247;52.828;-8.980;2023-05-16T03:13:15;102851.98;;;10.54;69.76
57412;BME280;43247;52.828;-8.980;2023-05-16T03:14:15;102853.96;;;10.52;69.76
57412;BME280;43247;52.828;-8.980;2023-05-16T03:15:15;102853.87;;;10.50;69.53
57412;BME280;43247;52.828;-8.980;2023-05-16T03:16:15;102851.27;;;10.48;69.70
57412;BME280;43247;52.828;-8.980;2023-05-16T03:17:15;102853.42;;;10.48;69.67
57412;BME280;43247;52.828;-8.980;2023-05-16T03:18:16;102850.25;;;10.47;69.60
57412;BME280;43247;52.828;-8.980;2023-05-16T03:19:16;102848.51;;;10.46;69.61
57412;BME280;43247;52.828;-8.980;2023-05-16T03:20:16;102849.98;;;10.46;69.54
57412;BME280;43247;52.828;-8.980;2023-05-16T03:21:16;102847.24;;;10.46;69.61
57412;BME280;43247;52.828;-8.980;2023-05-16T03:22:16;102846.29;;;10.43;69.49
57412;BME280;43247;52.828;-8.980;2023-05-16T03:23:16;102845.20;;;10.42;69.44
57412;BME280;43247;52.828;-8.980;2023-05-16T03:24:17;102845.51;;;10.40;69.37
57412;BME280;43247;52.828;-8.980;2023-05-16T03:25:17;102845.25;;;10.39;69.46
57412;BME280;43247;52.828;-8.980;2023-05-16T03:26:17;102843.66;;;10.39;69.40
57412;BME280;43247;52.828;-8.980;2023-05-16T03:27:17;102843.49;;;10.37;69.38
57412;BME280;43247;52.828;-8.980;2023-05-16T03:28:17;102844.29;;;10.36;69.43
57412;BME280;43247;52.828;-8.980;2023-05-16T03:29:17;102844.90;;;10.34;69.39
57412;BME280;43247;52.828;-8.980;2023-05-16T03:30:18;102846.18;;;10.32;69.15
57412;BME280;43247;52.828;-8.980;2023-05-16T03:31:18;102846.81;;;10.22;69.14
57412;BME280;43247;52.828;-8.980;2023-05-16T03:32:18;102847.51;;;10.19;68.70
57412;BME280;43247;52.828;-8.980;2023-05-16T03:33:18;102847.05;;;10.11;68.65
57412;BME280;43247;52.828;-8.980;2023-05-16T03:34:18;102846.12;;;10.15;68.55
57412;BME280;43247;52.828;-8.980;2023-05-16T03:35:19;102845.80;;;10.11;68.76
57412;BME280;43247;52.828;-8.980;2023-05-16T03:36:20;102845.47;;;10.19;68.57
57412;BME280;43247;52.828;-8.980;2023-05-16T03:37:20;102845.22;;;10.14;68.71
57412;BME280;43247;52.828;-8.980;2023-05-16T03:38:19;102845.79;;;10.19;68.51
57412;BME280;43247;52.828;-8.980;2023-05-16T03:39:19;102846.39;;;10.19;68.53
57412;BME280;43247;52.828;-8.980;2023-05-16T03:40:19;102845.48;;;10.18;68.61
57412;BME280;43247;52.828;-8.980;2023-05-16T03:41:20;102848.16;;;10.21;68.90
57412;BME280;43247;52.828;-8.980;2023-05-16T03:42:20;102848.26;;;10.26;68.55
57412;BME280;43247;52.828;-8.980;2023-05-16T03:43:20;102848.36;;;10.06;68.22
57412;BME280;43247;52.828;-8.980;2023-05-16T03:44:20;102849.94;;;9.95;67.96
57412;BME280;43247;52.828;-8.980;2023-05-16T03:45:20;102851.72;;;9.91;67.93
57412;BME280;43247;52.828;-8.980;2023-05-16T03:46:20;102853.59;;;9.91;67.69
57412;BME280;43247;52.828;-8.980;2023-05-16T03:47:21;102853.72;;;9.90;67.74
57412;BME280;43247;52.828;-8.980;2023-05-16T03:48:21;102854.35;;;9.89;67.96
57412;BME280;43247;52.828;-8.980;2023-05-16T03:49:25;102855.09;;;9.86;67.91
57412;BME280;43247;52.828;-8.980;2023-05-16T03:50:21;102855.52;;;9.91;67.79
57412;BME280;43247;52.828;-8.980;2023-05-16T03:51:21;102855.77;;;9.90;67.88
57412;BME280;43247;52.828;-8.980;2023-05-16T03:52:22;102856.31;;;9.87;67.96
57412;BME280;43247;52.828;-8.980;2023-05-16T03:53:22;102855.52;;;9.87;67.86
57412;BME280;43247;52.828;-8.980;2023-05-16T03:54:22;102853.84;;;9.89;67.88
57412;BME280;43247;52.828;-8.980;2023-05-16T03:55:22;102853.90;;;9.91;67.83
57412;BME280;43247;52.828;-8.980;2023-05-16T03:56:23;102853.05;;;9.80;68.25
57412;BME280;43247;52.828;-8.980;2023-05-16T03:57:23;102852.93;;;9.86;68.12
57412;BME280;43247;52.828;-8.980;2023-05-16T03:58:24;102851.69;;;9.92;67.83
57412;BME280;43247;52.828;-8.980;2023-05-16T03:59:24;102855.47;;;9.89;67.93
57412;BME280;43247;52.828;-8.980;2023-05-16T04:00:24;102854.64;;;9.92;67.83
57412;BME280;43247;52.828;-8.980;2023-05-16T04:01:24;102855.80;;;9.91;67.75
57412;BME280;43247;52.828;-8.980;2023-05-16T04:02:24;102853.59;;;9.87;67.91
57412;BME280;43247;52.828;-8.980;2023-05-16T04:03:24;102855.41;;;9.87;68.07
57412;BME280;43247;52.828;-8.980;2023-05-16T04:04:25;102853.76;;;9.93;67.93
57412;BME280;43247;52.828;-8.980;2023-05-16T04:05:25;102853.93;;;9.93;68.05
57412;BME280;43247;52.828;-8.980;2023-05-16T04:06:25;102853.96;;;9.90;68.05
57412;BME280;43247;52.828;-8.980;2023-05-16T04:07:25;102853.47;;;9.88;68.21
57412;BME280;43247;52.828;-8.980;2023-05-16T04:08:25;102852.65;;;9.84;68.45
57412;BME280;43247;52.828;-8.980;2023-05-16T04:09:26;102855.05;;;9.77;68.60
57412;BME280;43247;52.828;-8.980;2023-05-16T04:10:26;102853.92;;;9.73;68.95
57412;BME280;43247;52.828;-8.980;2023-05-16T04:11:26;102853.45;;;9.73;68.92
57412;BME280;43247;52.828;-8.980;2023-05-16T04:12:26;102852.52;;;9.72;68.87
57412;BME280;43247;52.828;-8.980;2023-05-16T04:13:26;102853.40;;;9.73;68.81
57412;BME280;43247;52.828;-8.980;2023-05-16T04:14:26;102855.04;;;9.89;68.10
57412;BME280;43247;52.828;-8.980;2023-05-16T04:15:27;102858.22;;;9.85;68.10
57412;BME280;43247;52.828;-8.980;2023-05-16T04:16:27;102858.77;;;9.88;68.09
57412;BME280;43247;52.828;-8.980;2023-05-16T04:17:27;102859.32;;;9.91;67.69
57412;BME280;43247;52.828;-8.980;2023-05-16T04:18:27;102858.58;;;9.82;67.73
57412;BME280;43247;52.828;-8.980;2023-05-16T04:19:27;102861.27;;;9.76;67.67
57412;BME280;43247;52.828;-8.980;2023-05-16T04:20:27;102861.44;;;9.76;67.66
57412;BME280;43247;52.828;-8.980;2023-05-16T04:21:28;102864.76;;;9.70;67.74
57412;BME280;43247;52.828;-8.980;2023-05-16T04:22:28;102868.81;;;9.69;67.86
57412;BME280;43247;52.828;-8.980;2023-05-16T04:23:28;102869.70;;;9.64;67.82
57412;BME280;43247;52.828;-8.980;2023-05-16T04:24:28;102868.03;;;9.70;67.67
57412;BME280;43247;52.828;-8.980;2023-05-16T04:25:28;102866.53;;;9.66;67.57
57412;BME280;43247;52.828;-8.980;2023-05-16T04:26:29;102864.88;;;9.73;67.56
57412;BME280;43247;52.828;-8.980;2023-05-16T04:27:29;102866.32;;;9.72;67.71
57412;BME280;43247;52.828;-8.980;2023-05-16T04:28:29;102864.10;;;9.73;67.64
57412;BME280;43247;52.828;-8.980;2023-05-16T04:29:29;102864.67;;;9.82;67.56
57412;BME280;43247;52.828;-8.980;2023-05-16T04:30:29;102867.86;;;9.77;67.54
57412;BME280;43247;52.828;-8.980;2023-05-16T04:31:29;102867.59;;;9.77;67.91
57412;BME280;43247;52.828;-8.980;2023-05-16T04:32:30;102867.16;;;9.80;67.83
57412;BME280;43247;52.828;-8.980;2023-05-16T04:33:30;102871.43;;;9.78;67.82
57412;BME280;43247;52.828;-8.980;2023-05-16T04:34:30;102872.50;;;9.94;67.88
57412;BME280;43247;52.828;-8.980;2023-05-16T04:35:30;102873.78;;;9.95;67.65
57412;BME280;43247;52.828;-8.980;2023-05-16T04:36:30;102876.05;;;10.00;67.74
57412;BME280;43247;52.828;-8.980;2023-05-16T04:37:30;102875.78;;;9.99;67.86
57412;BME280;43247;52.828;-8.980;2023-05-16T04:38:31;102874.26;;;9.93;67.91
57412;BME280;43247;52.828;-8.980;2023-05-16T04:39:31;102871.45;;;9.98;68.24
57412;BME280;43247;52.828;-8.980;2023-05-16T04:40:31;102871.62;;;10.00;68.18
57412;BME280;43247;52.828;-8.980;2023-05-16T04:41:31;102871.92;;;10.00;68.24
57412;BME280;43247;52.828;-8.980;2023-05-16T04:42:31;102873.84;;;10.04;68.19
57412;BME280;43247;52.828;-8.980;2023-05-16T04:43:32;102873.85;;;10.05;68.38
57412;BME280;43247;52.828;-8.980;2023-05-16T04:44:32;102876.93;;;10.05;68.39
57412;BME280;43247;52.828;-8.980;2023-05-16T04:45:32;102879.96;;;10.04;68.35
57412;BME280;43247;52.828;-8.980;2023-05-16T04:46:32;102881.27;;;10.04;68.56
57412;BME280;43247;52.828;-8.980;2023-05-16T04:47:32;102880.97;;;10.02;68.65
57412;BME280;43247;52.828;-8.980;2023-05-16T04:48:33;102880.42;;;10.00;68.76
57412;BME280;43247;52.828;-8.980;2023-05-16T04:49:33;102880.75;;;9.98;68.82
57412;BME280;43247;52.828;-8.980;2023-05-16T04:50:33;102877.66;;;9.97;68.88
57412;BME280;43247;52.828;-8.980;2023-05-16T04:51:33;102876.44;;;9.95;69.10
57412;BME280;43247;52.828;-8.980;2023-05-16T04:52:33;102876.42;;;9.95;69.00
57412;BME280;43247;52.828;-8.980;2023-05-16T04:53:33;102876.47;;;9.93;69.08
57412;BME280;43247;52.828;-8.980;2023-05-16T04:54:33;102876.76;;;9.92;69.13
57412;BME280;43247;52.828;-8.980;2023-05-16T04:55:34;102874.56;;;9.90;69.37
57412;BME280;43247;52.828;-8.980;2023-05-16T04:56:34;102875.01;;;9.90;69.31
57412;BME280;43247;52.828;-8.980;2023-05-16T04:57:34;102878.05;;;9.89;69.49
57412;BME280;43247;52.828;-8.980;2023-05-16T04:58:34;102877.46;;;9.86;69.49
57412;BME280;43247;52.828;-8.980;2023-05-16T04:59:34;102876.91;;;9.88;69.65
57412;BME280;43247;52.828;-8.980;2023-05-16T05:00:35;102879.30;;;9.86;69.85
57412;BME280;43247;52.828;-8.980;2023-05-16T05:01:35;102880.16;;;9.85;69.82
57412;BME280;43247;52.828;-8.980;2023-05-16T05:02:35;102879.76;;;9.83;69.86
57412;BME280;43247;52.828;-8.980;2023-05-16T05:03:35;102879.19;;;9.81;69.95
57412;BME280;43247;52.828;-8.980;2023-05-16T05:04:35;102881.66;;;9.81;70.08
57412;BME280;43247;52.828;-8.980;2023-05-16T05:05:36;102881.83;;;9.80;70.11
57412;BME280;43247;52.828;-8.980;2023-05-16T05:06:37;102885.78;;;9.80;70.18
57412;BME280;43247;52.828;-8.980;2023-05-16T05:07:36;102886.71;;;9.79;70.18
57412;BME280;43247;52.828;-8.980;2023-05-16T05:08:36;102889.40;;;9.78;70.16
57412;BME280;43247;52.828;-8.980;2023-05-16T05:09:37;102888.38;;;9.77;70.27
57412;BME280;43247;52.828;-8.980;2023-05-16T05:10:37;102886.19;;;9.76;70.22
57412;BME280;43247;52.828;-8.980;2023-05-16T05:11:37;102886.95;;;9.75;70.39
57412;BME280;43247;52.828;-8.980;2023-05-16T05:12:37;102885.06;;;9.75;70.38